createdAt,value
2022-08-26T00:01:47.506Z,5.28
2022-08-26T00:04:14.796Z,5.95
2022-08-26T00:06:42.672Z,4.93
2022-08-26T00:09:16.164Z,5.40
2022-08-26T00:11:44.645Z,5.53
2022-08-26T00:14:13.407Z,5.93
2022-08-26T00:16:40.906Z,5.38
2022-08-26T00:19:08.732Z,5.85
2022-08-26T00:21:37.560Z,5.82
2022-08-26T00:24:06.034Z,6.13
2022-08-26T00:26:34.810Z,5.78
2022-08-26T00:29:02.003Z,6.25
2022-08-26T00:31:31.136Z,5.68
2022-08-26T00:33:58.637Z,5.80
2022-08-26T00:36:29.784Z,6.90
2022-08-26T00:38:57.194Z,6.65
2022-08-26T00:41:24.592Z,7.13
2022-08-26T00:43:52.083Z,7.05
2022-08-26T00:46:22.487Z,6.72
2022-08-26T00:48:53.470Z,6.57
2022-08-26T00:51:23.082Z,7.68
2022-08-26T00:53:55.969Z,7.57
2022-08-26T00:56:32.297Z,7.05
2022-08-26T00:59:01.595Z,7.00
2022-08-26T01:01:31.626Z,7.43
2022-08-26T01:03:59.927Z,7.00
2022-08-26T01:06:28.412Z,7.03
2022-08-26T01:08:56.131Z,6.18
2022-08-26T01:11:24.421Z,5.95
2022-08-26T01:13:54.612Z,6.38
2022-08-26T01:16:24.704Z,5.93
2022-08-26T01:18:55.280Z,5.90
2022-08-26T01:21:29.518Z,7.05
2022-08-26T01:23:57.366Z,7.05
2022-08-26T01:26:28.865Z,6.63
2022-08-26T01:28:58.110Z,6.43
2022-08-26T01:31:29.651Z,6.95
2022-08-26T01:34:10.915Z,6.05
2022-08-26T01:36:39.581Z,6.68
2022-08-26T01:39:08.029Z,6.25
2022-08-26T01:41:36.478Z,7.20
2022-08-26T01:44:05.756Z,6.88
2022-08-26T01:49:06.538Z,6.72
2022-08-26T01:51:37.019Z,6.80
2022-08-26T01:54:05.907Z,7.00
2022-08-26T01:56:36.553Z,6.75
2022-08-26T01:59:06.026Z,6.63
2022-08-26T02:01:33.380Z,7.13
2022-08-26T02:04:06.838Z,6.53
2022-08-26T02:06:34.149Z,6.88
2022-08-26T02:09:02.592Z,6.53
2022-08-26T02:11:29.947Z,7.22
2022-08-26T02:14:02.916Z,7.32
2022-08-26T02:16:33.322Z,7.25
2022-08-26T02:19:02.271Z,6.93
2022-08-26T02:21:31.152Z,6.90
2022-08-26T02:24:08.208Z,7.45
2022-08-26T02:29:04.649Z,7.18
2022-08-26T02:31:32.000Z,7.75
2022-08-26T02:34:16.628Z,7.38
2022-08-26T02:36:44.022Z,7.15
2022-08-26T02:39:11.706Z,6.80
2022-08-26T02:41:44.927Z,6.43
2022-08-26T02:44:12.475Z,6.40
2022-08-26T02:46:39.848Z,7.45
2022-08-26T02:51:34.416Z,6.72
2022-08-26T02:56:29.279Z,7.75
2022-08-26T02:58:56.497Z,7.57
2022-08-26T03:01:29.772Z,7.30
2022-08-26T03:03:57.730Z,6.75
2022-08-26T03:06:25.194Z,6.97
2022-08-26T03:08:52.990Z,7.57
2022-08-26T03:11:20.428Z,8.00
2022-08-26T03:16:16.080Z,6.75
2022-08-26T03:18:43.501Z,7.55
2022-08-26T03:21:19.272Z,7.20
2022-08-26T03:26:15.774Z,7.70
2022-08-26T03:29:02.202Z,7.20
2022-08-26T03:31:29.931Z,7.00
2022-08-26T03:33:59.777Z,7.20
2022-08-26T03:36:27.488Z,7.50
2022-08-26T03:38:54.614Z,7.47
2022-08-26T03:41:21.797Z,7.50
2022-08-26T03:43:50.788Z,7.25
2022-08-26T03:46:20.037Z,7.53
2022-08-26T03:48:48.408Z,8.15
2022-08-26T03:51:20.118Z,7.10
2022-08-26T03:53:49.176Z,7.83
2022-08-26T03:56:16.305Z,8.50
2022-08-26T03:58:44.569Z,7.25
2022-08-26T04:01:13.613Z,7.97
2022-08-26T04:04:00.367Z,7.50
2022-08-26T04:06:48.185Z,7.38
2022-08-26T04:09:18.531Z,7.78
2022-08-26T04:11:47.473Z,8.13
2022-08-26T04:14:20.384Z,7.35
2022-08-26T04:16:48.005Z,7.40
2022-08-26T04:19:15.864Z,7.85
2022-08-26T04:26:42.682Z,8.30
2022-08-26T04:29:18.359Z,8.82
2022-08-26T04:31:46.883Z,7.45
2022-08-26T04:34:15.319Z,8.80
2022-08-26T04:41:39.639Z,8.00
2022-08-26T04:46:34.411Z,8.15
2022-08-26T04:51:29.349Z,8.52
2022-08-26T04:53:57.348Z,8.38
2022-08-26T04:56:29.115Z,8.00
2022-08-26T04:58:56.548Z,7.97
2022-08-26T05:01:24.041Z,8.18
2022-08-26T05:03:51.426Z,8.35
2022-08-26T05:06:19.944Z,8.30
2022-08-26T05:08:47.344Z,8.70
2022-08-26T05:11:15.342Z,8.55
2022-08-26T05:13:42.526Z,8.30
2022-08-26T05:16:11.873Z,7.80
2022-08-26T05:18:39.760Z,8.60
2022-08-26T05:21:07.920Z,8.32
2022-08-26T05:23:36.900Z,9.00
2022-08-26T05:26:08.062Z,8.50
2022-08-26T05:28:35.529Z,9.15
2022-08-26T05:31:11.427Z,8.30
2022-08-26T05:33:38.668Z,8.85
2022-08-26T05:36:11.867Z,7.20
2022-08-26T05:38:40.602Z,8.77
2022-08-26T05:41:17.245Z,8.55
2022-08-26T05:43:44.459Z,7.35
2022-08-26T05:46:12.077Z,7.90
2022-08-26T05:48:39.277Z,7.40
2022-08-26T05:51:12.297Z,7.90
2022-08-26T05:53:40.842Z,7.72
2022-08-26T05:56:12.008Z,8.38
2022-08-26T05:58:40.414Z,7.63
2022-08-26T06:01:14.382Z,7.38
2022-08-26T06:03:44.447Z,8.30
2022-08-26T06:06:13.459Z,8.25
2022-08-26T06:08:41.026Z,8.50
2022-08-26T06:11:18.427Z,8.60
2022-08-26T06:13:45.912Z,7.75
2022-08-26T06:16:15.039Z,7.40
2022-08-26T06:18:44.154Z,7.60
2022-08-26T06:21:13.597Z,8.13
2022-08-26T06:23:59.867Z,7.82
2022-08-26T06:26:28.091Z,7.63
2022-08-26T06:28:55.593Z,8.25
2022-08-26T06:31:23.666Z,7.82
2022-08-26T06:33:51.462Z,7.80
2022-08-26T06:36:19.979Z,7.57
2022-08-26T06:38:48.944Z,6.97
2022-08-26T06:41:17.937Z,7.97
2022-08-26T06:43:45.303Z,7.40
2022-08-26T06:46:13.304Z,7.53
2022-08-26T06:48:40.512Z,7.65
2022-08-26T06:51:18.918Z,7.28
2022-08-26T06:53:47.042Z,7.88
2022-08-26T06:56:16.624Z,6.93
2022-08-26T06:58:44.208Z,7.88
2022-08-26T07:01:20.546Z,7.07
2022-08-26T07:03:48.544Z,7.43
2022-08-26T07:06:18.453Z,7.47
2022-08-26T07:08:46.567Z,7.80
2022-08-26T07:11:14.747Z,7.47
2022-08-26T07:13:42.163Z,7.35
2022-08-26T07:16:12.574Z,7.25
2022-08-26T07:18:42.062Z,7.45
2022-08-26T07:21:13.350Z,7.43
2022-08-26T07:23:42.188Z,7.90
2022-08-26T07:26:10.779Z,6.20
2022-08-26T07:28:38.259Z,6.40
2022-08-26T07:31:09.815Z,6.90
2022-08-26T07:33:38.554Z,6.78
2022-08-26T07:36:06.955Z,7.05
2022-08-26T07:38:35.279Z,6.70
2022-08-26T07:41:02.553Z,6.38
2022-08-26T07:43:30.861Z,6.68
2022-08-26T07:45:58.167Z,6.63
2022-08-26T07:48:25.430Z,6.80
2022-08-26T07:50:53.758Z,6.65
2022-08-26T07:53:21.540Z,7.43
2022-08-26T07:55:51.846Z,6.55
2022-08-26T07:58:19.959Z,6.47
2022-08-26T08:00:47.640Z,6.95
2022-08-26T08:03:15.922Z,6.28
2022-08-26T08:05:44.362Z,6.30
2022-08-26T08:08:26.774Z,6.60
2022-08-26T08:10:55.813Z,7.00
2022-08-26T08:13:23.602Z,6.45
2022-08-26T08:15:51.129Z,6.78
2022-08-26T08:18:20.454Z,6.38
2022-08-26T08:20:59.468Z,6.38
2022-08-26T08:23:32.796Z,6.90
2022-08-26T08:26:04.270Z,7.05
2022-08-26T08:28:31.575Z,6.10
2022-08-26T08:30:59.625Z,6.15
2022-08-26T08:33:27.015Z,6.65
2022-08-26T08:35:55.356Z,5.93
2022-08-26T08:38:22.599Z,7.00
2022-08-26T08:40:51.564Z,6.63
2022-08-26T08:43:32.696Z,7.07
2022-08-26T08:46:08.064Z,6.65
2022-08-26T08:48:37.797Z,7.35
2022-08-26T08:51:24.089Z,7.22
2022-08-26T08:53:54.812Z,6.55
2022-08-26T08:56:25.228Z,7.68
2022-08-26T08:59:08.325Z,6.70
2022-08-26T09:01:56.603Z,6.40
2022-08-26T09:04:23.753Z,7.25
2022-08-26T09:06:53.893Z,7.25
2022-08-26T09:09:24.582Z,7.95
2022-08-26T09:11:52.039Z,7.65
2022-08-26T09:14:19.223Z,7.10
2022-08-26T09:16:51.565Z,7.95
2022-08-26T09:19:25.644Z,6.97
2022-08-26T09:21:57.050Z,7.88
2022-08-26T09:24:28.396Z,7.20
2022-08-26T09:26:58.960Z,7.35
2022-08-26T09:29:28.150Z,7.85
2022-08-26T09:32:16.024Z,7.68
2022-08-26T09:34:54.474Z,8.45
2022-08-26T09:37:36.983Z,8.18
2022-08-26T09:40:13.547Z,8.10
2022-08-26T09:42:40.766Z,7.15
2022-08-26T09:45:12.846Z,7.32
2022-08-26T09:47:41.389Z,7.70
2022-08-26T09:50:12.498Z,7.75
2022-08-26T09:52:40.505Z,6.95
2022-08-26T09:55:10.051Z,6.95
2022-08-26T09:57:45.672Z,7.03
2022-08-26T10:00:25.537Z,7.32
2022-08-26T10:02:54.864Z,6.68
2022-08-26T10:05:33.509Z,7.10
2022-08-26T10:08:00.795Z,7.57
2022-08-26T10:10:38.918Z,7.30
2022-08-26T10:13:13.272Z,7.20
2022-08-26T10:16:00.774Z,7.60
2022-08-26T10:18:48.250Z,6.82
2022-08-26T10:21:28.589Z,7.25
2022-08-26T10:23:57.446Z,6.88
2022-08-26T10:26:28.470Z,7.10
2022-08-26T10:29:06.810Z,6.95
2022-08-26T10:31:38.317Z,6.82
2022-08-26T10:34:09.049Z,7.13
2022-08-26T10:37:13.744Z,6.53
2022-08-26T10:39:46.114Z,7.35
2022-08-26T10:42:35.260Z,6.78
2022-08-26T10:45:06.345Z,6.82
2022-08-26T10:47:56.565Z,6.85
2022-08-26T10:50:26.938Z,7.45
2022-08-26T10:53:03.135Z,7.55
2022-08-26T10:55:30.406Z,6.75
2022-08-26T10:58:26.392Z,7.45
2022-08-26T11:01:17.017Z,7.13
2022-08-26T11:03:53.138Z,7.55
2022-08-26T11:06:23.002Z,8.50
2022-08-26T11:09:09.149Z,6.85
2022-08-26T11:11:42.628Z,7.18
2022-08-26T11:14:09.831Z,7.20
2022-08-26T11:16:42.869Z,7.10
2022-08-26T11:19:12.042Z,7.47
2022-08-26T11:21:50.839Z,7.68
2022-08-26T11:24:39.844Z,6.95
2022-08-26T11:27:10.189Z,6.97
2022-08-26T11:29:56.200Z,7.25
2022-08-26T11:32:46.753Z,6.95
2022-08-26T11:37:49.123Z,7.53
2022-08-26T11:40:18.283Z,7.68
2022-08-26T11:42:49.550Z,7.00
2022-08-26T11:45:19.401Z,6.47
2022-08-26T11:47:46.834Z,6.38
2022-08-26T11:50:19.298Z,6.30
2022-08-26T11:53:04.137Z,6.55
2022-08-26T11:55:35.083Z,5.90
2022-08-26T11:58:04.654Z,6.75
2022-08-26T12:00:35.973Z,5.80
2022-08-26T12:03:07.421Z,5.47
2022-08-26T12:05:43.446Z,6.47
2022-08-26T12:08:13.209Z,6.03
2022-08-26T12:10:41.677Z,6.22
2022-08-26T12:13:18.542Z,5.97
2022-08-26T12:15:52.310Z,5.13
2022-08-26T12:18:28.925Z,5.22
2022-08-26T12:20:58.661Z,4.97
2022-08-26T12:23:26.032Z,5.75
2022-08-26T12:25:54.783Z,5.28
2022-08-26T12:28:23.209Z,6.38
2022-08-26T12:31:01.056Z,5.30
2022-08-26T12:33:28.423Z,5.72
2022-08-26T12:35:56.997Z,5.70
2022-08-26T12:38:25.671Z,5.35
2022-08-26T12:40:52.986Z,5.65
2022-08-26T12:43:39.444Z,5.80
2022-08-26T12:46:08.616Z,4.35
2022-08-26T12:48:38.434Z,5.05
2022-08-26T12:51:08.146Z,5.10
2022-08-26T12:53:41.456Z,5.15
2022-08-26T12:56:20.761Z,5.20
2022-08-26T12:59:01.031Z,5.68
2022-08-26T13:01:28.359Z,4.75
2022-08-26T13:03:55.888Z,5.43
2022-08-26T13:06:23.168Z,5.35
2022-08-26T13:08:51.416Z,5.32
2022-08-26T13:11:20.547Z,4.63
2022-08-26T13:13:52.528Z,4.00
2022-08-26T13:16:21.674Z,4.43
2022-08-26T13:18:49.868Z,4.72
2022-08-26T13:21:18.707Z,4.57
2022-08-26T13:23:46.134Z,4.40
2022-08-26T13:26:13.872Z,4.18
2022-08-26T13:28:42.138Z,4.32
2022-08-26T13:31:11.005Z,4.03
2022-08-26T13:33:38.254Z,4.40
2022-08-26T13:36:06.902Z,4.10
2022-08-26T13:38:34.404Z,4.25
2022-08-26T13:41:03.436Z,3.72
2022-08-26T13:43:31.209Z,3.70
2022-08-26T13:45:58.655Z,4.18
2022-08-26T13:48:26.189Z,3.85
2022-08-26T13:50:53.786Z,4.32
2022-08-26T13:53:20.978Z,4.40
2022-08-26T13:55:48.456Z,3.90
2022-08-26T13:58:16.499Z,4.93
2022-08-26T14:00:43.951Z,5.03
2022-08-26T14:03:13.349Z,4.70
2022-08-26T14:05:41.065Z,5.00
2022-08-26T14:08:08.680Z,5.03
2022-08-26T14:10:36.772Z,5.38
2022-08-26T14:13:04.594Z,4.93
2022-08-26T14:15:35.791Z,4.82
2022-08-26T14:18:04.541Z,5.20
2022-08-26T14:20:34.332Z,5.63
2022-08-26T14:23:13.643Z,5.45
2022-08-26T14:25:41.509Z,5.07
2022-08-26T14:28:08.676Z,5.28
2022-08-26T14:30:36.218Z,4.95
2022-08-26T14:33:03.413Z,5.95
2022-08-26T14:35:31.266Z,5.43
2022-08-26T14:37:58.686Z,5.25
2022-08-26T14:40:29.386Z,5.15
2022-08-26T14:42:58.870Z,5.40
2022-08-26T14:45:27.358Z,5.50
2022-08-26T14:47:56.619Z,4.93
2022-08-26T14:50:26.117Z,4.80
2022-08-26T14:53:11.889Z,4.68
2022-08-26T14:55:41.099Z,5.45
2022-08-26T14:58:09.917Z,5.18
2022-08-26T15:00:37.638Z,5.68
2022-08-26T15:03:05.614Z,5.25
2022-08-26T15:05:33.837Z,7.90
2022-08-26T15:08:02.577Z,11.23
2022-08-26T15:10:29.779Z,10.45
2022-08-26T15:12:56.902Z,10.80
2022-08-26T15:15:24.921Z,10.98
2022-08-26T15:17:52.060Z,10.73
2022-08-26T15:20:19.445Z,10.75
2022-08-26T15:22:46.647Z,11.60
2022-08-26T15:25:14.083Z,12.35
2022-08-26T15:27:41.241Z,12.05
2022-08-26T15:30:09.926Z,11.27
2022-08-26T15:32:37.438Z,11.75
2022-08-26T15:35:08.865Z,10.57
2022-08-26T15:37:36.723Z,11.25
2022-08-26T15:40:05.149Z,11.70
2022-08-26T15:44:59.589Z,15.05
2022-08-26T15:47:26.759Z,16.13
2022-08-26T15:49:55.666Z,17.52
2022-08-26T15:52:22.829Z,16.85
2022-08-26T15:54:49.991Z,16.90
2022-08-26T15:57:19.633Z,15.82
2022-08-26T15:59:47.012Z,15.55
2022-08-26T16:02:14.542Z,15.23
2022-08-26T16:04:41.934Z,14.65
2022-08-26T16:07:10.831Z,17.67
2022-08-26T16:09:37.951Z,16.65
2022-08-26T16:12:05.253Z,16.27
2022-08-26T16:14:32.510Z,17.05
2022-08-26T16:16:59.711Z,18.25
2022-08-26T16:24:24.892Z,18.42
2022-08-26T16:29:21.632Z,16.80
2022-08-26T16:31:51.892Z,16.50
2022-08-26T16:34:19.118Z,16.70
2022-08-26T16:36:46.338Z,16.33
2022-08-26T16:39:13.947Z,17.17
2022-08-26T16:41:46.989Z,17.10
2022-08-26T16:44:14.168Z,16.50
2022-08-26T16:46:41.639Z,16.40
2022-08-26T16:49:08.862Z,16.27
2022-08-26T16:51:38.315Z,15.88
2022-08-26T16:54:07.077Z,14.88
2022-08-26T16:56:34.664Z,16.02
2022-08-26T16:59:02.974Z,16.33
2022-08-26T17:01:30.290Z,17.95
2022-08-26T17:03:57.529Z,17.13
2022-08-26T17:06:24.741Z,19.08
2022-08-26T17:08:52.434Z,19.27
2022-08-26T17:11:19.722Z,18.30
2022-08-26T17:13:46.964Z,17.85
2022-08-26T17:16:14.314Z,17.98
2022-08-26T17:18:41.885Z,20.80
2022-08-26T17:21:11.884Z,20.90
2022-08-26T17:23:42.999Z,20.60
2022-08-26T17:26:12.304Z,20.33
2022-08-26T17:28:39.800Z,19.52
2022-08-26T17:31:07.811Z,16.92
2022-08-26T17:33:35.113Z,18.92
2022-08-26T17:36:02.436Z,19.25
2022-08-26T17:38:29.638Z,18.58
2022-08-26T17:40:57.523Z,17.35
2022-08-26T17:43:26.719Z,17.85
2022-08-26T17:46:06.701Z,18.55
2022-08-26T17:48:34.702Z,18.90
2022-08-26T17:51:06.193Z,17.23
2022-08-26T17:53:34.074Z,16.42
2022-08-26T17:56:01.434Z,16.48
2022-08-26T17:58:29.527Z,16.50
2022-08-26T18:00:56.682Z,16.38
2022-08-26T18:03:23.918Z,14.80
2022-08-26T18:05:52.042Z,15.32
2022-08-26T18:08:20.027Z,15.18
2022-08-26T18:10:47.404Z,15.80
2022-08-26T18:13:24.828Z,15.30
2022-08-26T18:15:52.029Z,15.93
2022-08-26T18:18:21.389Z,14.88
2022-08-26T18:20:51.779Z,14.70
2022-08-26T18:23:22.958Z,14.85
2022-08-26T18:25:53.858Z,14.57
2022-08-26T18:28:21.198Z,13.10
2022-08-26T18:30:48.727Z,13.98
2022-08-26T18:33:16.105Z,12.52
2022-08-26T18:35:44.301Z,12.88
2022-08-26T18:38:13.959Z,12.55
2022-08-26T18:40:42.663Z,12.77
2022-08-26T18:43:09.825Z,12.52
2022-08-26T18:45:37.168Z,12.25
2022-08-26T18:48:04.523Z,13.05
2022-08-26T18:50:31.754Z,12.65
2022-08-26T18:52:58.931Z,12.38
2022-08-26T18:55:26.144Z,12.70
2022-08-26T18:57:53.323Z,12.30
2022-08-26T19:00:20.453Z,12.05
2022-08-26T19:02:51.992Z,11.65
2022-08-26T19:05:19.781Z,12.07
2022-08-26T19:07:48.048Z,11.73
2022-08-26T19:10:15.295Z,11.55
2022-08-26T19:12:42.547Z,10.65
2022-08-26T19:15:11.333Z,12.18
2022-08-26T19:17:38.526Z,11.95
2022-08-26T19:20:06.110Z,11.00
2022-08-26T19:22:33.253Z,12.32
2022-08-26T19:25:01.283Z,11.02
2022-08-26T19:27:28.453Z,12.25
2022-08-26T19:29:57.291Z,11.25
2022-08-26T19:32:25.223Z,11.52
2022-08-26T19:34:52.792Z,11.25
2022-08-26T19:37:20.306Z,12.27
2022-08-26T19:39:47.939Z,11.63
2022-08-26T19:42:17.650Z,11.32
2022-08-26T19:45:03.478Z,11.63
2022-08-26T19:47:32.503Z,10.98
2022-08-26T19:50:02.142Z,11.13
2022-08-26T19:52:30.502Z,10.88
2022-08-26T19:54:58.035Z,11.85
2022-08-26T19:57:25.352Z,11.70
2022-08-26T19:59:52.567Z,11.00
2022-08-26T20:02:19.771Z,11.07
2022-08-26T20:04:47.058Z,11.55
2022-08-26T20:07:18.067Z,11.52
2022-08-26T20:09:46.425Z,11.70
2022-08-26T20:12:13.618Z,11.07
2022-08-26T20:14:40.801Z,11.63
2022-08-26T20:17:08.056Z,11.82
2022-08-26T20:19:54.991Z,11.80
2022-08-26T20:22:22.239Z,11.35
2022-08-26T20:24:49.893Z,10.88
2022-08-26T20:27:17.075Z,12.68
2022-08-26T20:29:44.476Z,11.35
2022-08-26T20:32:12.040Z,12.30
2022-08-26T20:34:40.016Z,12.13
2022-08-26T20:37:08.508Z,12.45
2022-08-26T20:39:35.811Z,11.77
2022-08-26T20:42:03.286Z,12.23
2022-08-26T20:44:30.463Z,13.05
2022-08-26T20:46:59.105Z,12.82
2022-08-26T20:49:27.387Z,12.90
2022-08-26T20:51:54.849Z,13.05
2022-08-26T20:54:27.576Z,12.60
2022-08-26T20:56:56.119Z,13.27
2022-08-26T20:59:23.308Z,13.32
2022-08-26T21:01:50.532Z,15.27
2022-08-26T21:04:20.226Z,16.95
2022-08-26T21:06:50.315Z,17.92
2022-08-26T21:09:20.724Z,17.90
2022-08-26T21:11:48.658Z,17.38
2022-08-26T21:14:17.256Z,18.17
2022-08-26T21:16:45.358Z,18.73
2022-08-26T21:19:14.401Z,19.00
2022-08-26T21:21:42.037Z,19.23
2022-08-26T21:24:09.294Z,21.35
2022-08-26T21:26:36.439Z,20.58
2022-08-26T21:29:03.951Z,21.40
2022-08-26T21:31:32.020Z,20.35
2022-08-26T21:33:59.639Z,20.45
2022-08-26T21:36:26.994Z,19.80
2022-08-26T21:38:56.128Z,22.17
2022-08-26T21:43:51.380Z,20.23
2022-08-26T21:46:20.124Z,21.75
2022-08-26T21:48:50.707Z,21.13
2022-08-26T21:51:19.164Z,21.35
2022-08-26T21:53:46.309Z,20.80
2022-08-26T21:56:15.479Z,21.65
2022-08-26T21:58:42.998Z,20.15
2022-08-26T22:01:11.819Z,21.17
2022-08-26T22:03:47.581Z,21.10
2022-08-26T22:06:16.705Z,20.20
2022-08-26T22:08:44.237Z,20.65
2022-08-26T22:11:11.561Z,20.05
2022-08-26T22:13:39.706Z,19.52
2022-08-26T22:16:07.525Z,20.95
2022-08-26T22:18:35.217Z,19.15
2022-08-26T22:21:05.218Z,19.65
2022-08-26T22:23:32.340Z,20.48
2022-08-26T22:25:59.830Z,19.95
2022-08-26T22:28:27.080Z,18.90
2022-08-26T22:30:55.525Z,19.55
2022-08-26T22:33:23.126Z,18.67
2022-08-26T22:35:51.749Z,19.45
2022-08-26T22:38:19.017Z,20.02
2022-08-26T22:40:56.066Z,20.13
2022-08-26T22:45:50.737Z,19.83
2022-08-26T22:48:19.181Z,20.92
2022-08-26T22:50:47.109Z,21.60
2022-08-26T22:53:15.531Z,21.38
2022-08-26T22:55:45.908Z,22.80
2022-08-26T22:58:14.510Z,22.85
2022-08-26T23:00:42.729Z,23.05
2022-08-26T23:03:11.633Z,23.60
2022-08-26T23:05:40.063Z,26.80
2022-08-26T23:08:08.560Z,28.00
2022-08-26T23:10:37.013Z,29.00
2022-08-26T23:13:05.329Z,29.75
2022-08-26T23:15:32.542Z,28.20
2022-08-26T23:17:59.709Z,28.52
2022-08-26T23:20:27.947Z,31.17
2022-08-26T23:22:55.432Z,29.58
2022-08-26T23:25:23.121Z,30.38
2022-08-26T23:27:51.811Z,30.80
2022-08-26T23:30:21.075Z,30.42
2022-08-26T23:32:48.555Z,30.70
2022-08-26T23:35:15.944Z,32.60
2022-08-26T23:37:47.902Z,29.33
2022-08-26T23:40:18.199Z,30.77
2022-08-26T23:42:45.406Z,30.75
2022-08-26T23:45:13.644Z,32.65
2022-08-26T23:47:41.371Z,33.15
2022-08-26T23:50:09.353Z,31.50
2022-08-26T23:52:55.424Z,33.78
2022-08-26T23:55:23.452Z,32.28
2022-08-26T23:57:50.958Z,31.40
